sensor_id;sensor_type;location;lat;lon;timestamp;P1;durP1;ratioP1;P2;durP2;ratioP2
46731;SDS011;32477;51.474;5.696;2022-12-08T00:00:52;58.40;;;28.63;;
46731;SDS011;32477;51.474;5.696;2022-12-08T00:03:17;51.22;;;27.60;;
46731;SDS011;32477;51.474;5.696;2022-12-08T00:05:47;61.20;;;29.48;;
46731;SDS011;32477;51.474;5.696;2022-12-08T00:08:32;51.10;;;28.38;;
46731;SDS011;32477;51.474;5.696;2022-12-08T00:13:42;51.42;;;26.58;;
46731;SDS011;32477;51.474;5.696;2022-12-08T00:16:08;54.78;;;28.20;;
46731;SDS011;32477;51.474;5.696;2022-12-08T00:18:34;60.67;;;27.75;;
46731;SDS011;32477;51.474;5.696;2022-12-08T00:21:00;58.80;;;28.63;;
46731;SDS011;32477;51.474;5.696;2022-12-08T00:23:26;59.40;;;28.27;;
46731;SDS011;32477;51.474;5.696;2022-12-08T00:25:51;54.97;;;25.98;;
46731;SDS011;32477;51.474;5.696;2022-12-08T00:28:17;64.47;;;29.40;;
46731;SDS011;32477;51.474;5.696;2022-12-08T00:30:43;59.20;;;27.85;;
46731;SDS011;32477;51.474;5.696;2022-12-08T00:33:09;59.70;;;29.13;;
46731;SDS011;32477;51.474;5.696;2022-12-08T00:35:35;58.03;;;27.25;;
46731;SDS011;32477;51.474;5.696;2022-12-08T00:38:01;68.75;;;31.30;;
46731;SDS011;32477;51.474;5.696;2022-12-08T00:40:27;55.17;;;27.48;;
46731;SDS011;32477;51.474;5.696;2022-12-08T00:42:53;59.35;;;28.20;;
46731;SDS011;32477;51.474;5.696;2022-12-08T00:45:19;56.38;;;27.95;;
46731;SDS011;32477;51.474;5.696;2022-12-08T00:47:44;66.75;;;30.73;;
46731;SDS011;32477;51.474;5.696;2022-12-08T00:50:10;60.38;;;28.95;;
46731;SDS011;32477;51.474;5.696;2022-12-08T00:52:36;63.28;;;28.58;;
46731;SDS011;32477;51.474;5.696;2022-12-08T00:55:02;59.13;;;27.67;;
46731;SDS011;32477;51.474;5.696;2022-12-08T00:57:28;62.80;;;28.70;;
46731;SDS011;32477;51.474;5.696;2022-12-08T00:59:53;57.53;;;27.17;;
46731;SDS011;32477;51.474;5.696;2022-12-08T01:02:19;59.90;;;29.95;;
46731;SDS011;32477;51.474;5.696;2022-12-08T01:04:45;57.60;;;28.67;;
46731;SDS011;32477;51.474;5.696;2022-12-08T01:07:11;64.75;;;29.73;;
46731;SDS011;32477;51.474;5.696;2022-12-08T01:09:37;69.35;;;31.33;;
46731;SDS011;32477;51.474;5.696;2022-12-08T01:12:02;64.40;;;29.77;;
46731;SDS011;32477;51.474;5.696;2022-12-08T01:14:29;59.53;;;29.88;;
46731;SDS011;32477;51.474;5.696;2022-12-08T01:16:54;62.35;;;31.98;;
46731;SDS011;32477;51.474;5.696;2022-12-08T01:19:20;63.78;;;30.77;;
46731;SDS011;32477;51.474;5.696;2022-12-08T01:21:46;72.50;;;32.13;;
46731;SDS011;32477;51.474;5.696;2022-12-08T01:24:13;59.78;;;30.77;;
46731;SDS011;32477;51.474;5.696;2022-12-08T01:26:40;62.20;;;31.52;;
46731;SDS011;32477;51.474;5.696;2022-12-08T01:29:06;70.40;;;30.63;;
46731;SDS011;32477;51.474;5.696;2022-12-08T01:31:32;65.97;;;31.02;;
46731;SDS011;32477;51.474;5.696;2022-12-08T01:33:58;67.05;;;31.38;;
46731;SDS011;32477;51.474;5.696;2022-12-08T01:36:26;62.35;;;30.88;;
46731;SDS011;32477;51.474;5.696;2022-12-08T01:38:55;59.42;;;29.65;;
46731;SDS011;32477;51.474;5.696;2022-12-08T01:41:24;64.15;;;29.17;;
46731;SDS011;32477;51.474;5.696;2022-12-08T01:46:25;62.58;;;30.85;;
46731;SDS011;32477;51.474;5.696;2022-12-08T01:48:54;57.17;;;28.02;;
46731;SDS011;32477;51.474;5.696;2022-12-08T01:51:27;61.92;;;28.30;;
46731;SDS011;32477;51.474;5.696;2022-12-08T01:53:56;57.90;;;28.88;;
46731;SDS011;32477;51.474;5.696;2022-12-08T01:56:27;59.20;;;28.05;;
46731;SDS011;32477;51.474;5.696;2022-12-08T01:59:21;55.67;;;26.70;;
46731;SDS011;32477;51.474;5.696;2022-12-08T02:01:49;60.28;;;27.80;;
46731;SDS011;32477;51.474;5.696;2022-12-08T02:04:15;54.83;;;28.55;;
46731;SDS011;32477;51.474;5.696;2022-12-08T02:06:42;57.90;;;27.20;;
46731;SDS011;32477;51.474;5.696;2022-12-08T02:09:10;55.42;;;27.08;;
46731;SDS011;32477;51.474;5.696;2022-12-08T02:11:36;52.40;;;26.05;;
46731;SDS011;32477;51.474;5.696;2022-12-08T02:14:03;61.42;;;26.65;;
46731;SDS011;32477;51.474;5.696;2022-12-08T02:16:41;58.22;;;27.15;;
46731;SDS011;32477;51.474;5.696;2022-12-08T02:22:01;49.45;;;24.95;;
46731;SDS011;32477;51.474;5.696;2022-12-08T02:24:40;51.00;;;26.48;;
46731;SDS011;32477;51.474;5.696;2022-12-08T02:30:14;51.63;;;25.33;;
46731;SDS011;32477;51.474;5.696;2022-12-08T02:41:07;49.45;;;24.67;;
46731;SDS011;32477;51.474;5.696;2022-12-08T02:46:32;44.58;;;23.15;;
46731;SDS011;32477;51.474;5.696;2022-12-08T02:49:02;50.25;;;24.08;;
46731;SDS011;32477;51.474;5.696;2022-12-08T02:51:29;47.40;;;24.02;;
46731;SDS011;32477;51.474;5.696;2022-12-08T02:53:54;43.85;;;24.05;;
46731;SDS011;32477;51.474;5.696;2022-12-08T02:56:34;49.95;;;24.20;;
46731;SDS011;32477;51.474;5.696;2022-12-08T03:06:55;35.78;;;20.40;;
46731;SDS011;32477;51.474;5.696;2022-12-08T03:12:33;35.40;;;18.67;;
46731;SDS011;32477;51.474;5.696;2022-12-08T03:15:05;32.70;;;17.60;;
46731;SDS011;32477;51.474;5.696;2022-12-08T03:20:08;28.08;;;15.52;;
46731;SDS011;32477;51.474;5.696;2022-12-08T03:22:37;26.20;;;14.50;;
46731;SDS011;32477;51.474;5.696;2022-12-08T03:25:04;28.60;;;15.80;;
46731;SDS011;32477;51.474;5.696;2022-12-08T03:27:31;32.15;;;16.02;;
46731;SDS011;32477;51.474;5.696;2022-12-08T03:29:58;30.52;;;17.30;;
46731;SDS011;32477;51.474;5.696;2022-12-08T03:32:26;32.88;;;17.02;;
46731;SDS011;32477;51.474;5.696;2022-12-08T03:34:53;33.15;;;15.15;;
46731;SDS011;32477;51.474;5.696;2022-12-08T03:37:22;32.47;;;16.63;;
46731;SDS011;32477;51.474;5.696;2022-12-08T03:39:48;31.77;;;15.80;;
46731;SDS011;32477;51.474;5.696;2022-12-08T03:42:14;31.63;;;15.50;;
46731;SDS011;32477;51.474;5.696;2022-12-08T03:44:39;28.02;;;14.90;;
46731;SDS011;32477;51.474;5.696;2022-12-08T03:47:05;34.15;;;15.05;;
46731;SDS011;32477;51.474;5.696;2022-12-08T03:49:31;28.23;;;14.80;;
46731;SDS011;32477;51.474;5.696;2022-12-08T03:51:56;27.60;;;14.15;;
46731;SDS011;32477;51.474;5.696;2022-12-08T03:54:22;25.95;;;14.10;;
46731;SDS011;32477;51.474;5.696;2022-12-08T03:56:48;32.75;;;15.13;;
46731;SDS011;32477;51.474;5.696;2022-12-08T03:59:14;26.67;;;13.77;;
46731;SDS011;32477;51.474;5.696;2022-12-08T04:01:40;34.80;;;15.48;;
46731;SDS011;32477;51.474;5.696;2022-12-08T04:04:05;37.60;;;16.42;;
46731;SDS011;32477;51.474;5.696;2022-12-08T04:06:31;36.13;;;17.20;;
46731;SDS011;32477;51.474;5.696;2022-12-08T04:08:58;39.70;;;16.05;;
46731;SDS011;32477;51.474;5.696;2022-12-08T04:11:24;34.15;;;17.77;;
46731;SDS011;32477;51.474;5.696;2022-12-08T04:13:50;42.85;;;20.27;;
46731;SDS011;32477;51.474;5.696;2022-12-08T04:16:17;49.88;;;21.73;;
46731;SDS011;32477;51.474;5.696;2022-12-08T04:18:47;53.72;;;22.95;;
46731;SDS011;32477;51.474;5.696;2022-12-08T04:21:13;49.70;;;23.88;;
46731;SDS011;32477;51.474;5.696;2022-12-08T04:23:39;50.53;;;23.30;;
46731;SDS011;32477;51.474;5.696;2022-12-08T04:26:05;49.25;;;23.75;;
46731;SDS011;32477;51.474;5.696;2022-12-08T04:28:31;54.80;;;23.75;;
46731;SDS011;32477;51.474;5.696;2022-12-08T04:30:56;53.03;;;24.63;;
46731;SDS011;32477;51.474;5.696;2022-12-08T04:33:22;56.28;;;26.90;;
46731;SDS011;32477;51.474;5.696;2022-12-08T04:35:48;56.03;;;26.20;;
46731;SDS011;32477;51.474;5.696;2022-12-08T04:38:14;62.85;;;27.33;;
46731;SDS011;32477;51.474;5.696;2022-12-08T04:40:40;59.33;;;27.27;;
46731;SDS011;32477;51.474;5.696;2022-12-08T04:43:06;62.97;;;28.63;;
46731;SDS011;32477;51.474;5.696;2022-12-08T04:45:31;55.20;;;27.83;;
46731;SDS011;32477;51.474;5.696;2022-12-08T04:47:58;59.55;;;27.80;;
46731;SDS011;32477;51.474;5.696;2022-12-08T04:50:24;59.88;;;26.67;;
46731;SDS011;32477;51.474;5.696;2022-12-08T04:52:50;62.05;;;26.60;;
46731;SDS011;32477;51.474;5.696;2022-12-08T04:55:16;68.95;;;29.10;;
46731;SDS011;32477;51.474;5.696;2022-12-08T04:57:42;57.33;;;26.30;;
46731;SDS011;32477;51.474;5.696;2022-12-08T05:00:08;55.53;;;26.00;;
46731;SDS011;32477;51.474;5.696;2022-12-08T05:02:34;51.50;;;24.45;;
46731;SDS011;32477;51.474;5.696;2022-12-08T05:05:00;56.17;;;24.85;;
46731;SDS011;32477;51.474;5.696;2022-12-08T05:07:26;52.47;;;25.15;;
46731;SDS011;32477;51.474;5.696;2022-12-08T05:09:51;42.40;;;21.05;;
46731;SDS011;32477;51.474;5.696;2022-12-08T05:12:17;50.63;;;22.77;;
46731;SDS011;32477;51.474;5.696;2022-12-08T05:14:43;43.75;;;21.23;;
46731;SDS011;32477;51.474;5.696;2022-12-08T05:17:08;45.78;;;20.92;;
46731;SDS011;32477;51.474;5.696;2022-12-08T05:19:34;38.90;;;18.23;;
46731;SDS011;32477;51.474;5.696;2022-12-08T05:22:00;39.22;;;19.60;;
46731;SDS011;32477;51.474;5.696;2022-12-08T05:24:26;46.53;;;20.55;;
46731;SDS011;32477;51.474;5.696;2022-12-08T05:26:58;45.85;;;19.40;;
46731;SDS011;32477;51.474;5.696;2022-12-08T05:29:24;35.67;;;17.75;;
46731;SDS011;32477;51.474;5.696;2022-12-08T05:31:50;35.15;;;17.13;;
46731;SDS011;32477;51.474;5.696;2022-12-08T05:34:16;33.63;;;15.68;;
46731;SDS011;32477;51.474;5.696;2022-12-08T05:36:41;36.40;;;15.38;;
46731;SDS011;32477;51.474;5.696;2022-12-08T05:39:08;27.77;;;15.18;;
46731;SDS011;32477;51.474;5.696;2022-12-08T05:41:36;33.22;;;14.05;;
46731;SDS011;32477;51.474;5.696;2022-12-08T05:44:02;28.88;;;11.25;;
46731;SDS011;32477;51.474;5.696;2022-12-08T05:46:28;22.90;;;12.35;;
46731;SDS011;32477;51.474;5.696;2022-12-08T05:48:53;26.60;;;13.05;;
46731;SDS011;32477;51.474;5.696;2022-12-08T05:51:20;26.67;;;12.75;;
46731;SDS011;32477;51.474;5.696;2022-12-08T05:53:48;24.70;;;12.20;;
46731;SDS011;32477;51.474;5.696;2022-12-08T05:56:15;26.33;;;10.60;;
46731;SDS011;32477;51.474;5.696;2022-12-08T05:58:41;22.35;;;11.15;;
46731;SDS011;32477;51.474;5.696;2022-12-08T06:01:07;20.83;;;10.88;;
46731;SDS011;32477;51.474;5.696;2022-12-08T06:03:42;30.02;;;13.75;;
46731;SDS011;32477;51.474;5.696;2022-12-08T06:06:07;29.08;;;12.93;;
46731;SDS011;32477;51.474;5.696;2022-12-08T06:08:33;26.52;;;12.75;;
46731;SDS011;32477;51.474;5.696;2022-12-08T06:10:58;30.38;;;13.77;;
46731;SDS011;32477;51.474;5.696;2022-12-08T06:13:24;31.08;;;14.70;;
46731;SDS011;32477;51.474;5.696;2022-12-08T06:15:50;30.35;;;16.25;;
46731;SDS011;32477;51.474;5.696;2022-12-08T06:18:15;31.83;;;15.75;;
46731;SDS011;32477;51.474;5.696;2022-12-08T06:20:41;18.15;;;9.18;;
46731;SDS011;32477;51.474;5.696;2022-12-08T06:23:06;14.43;;;7.25;;
46731;SDS011;32477;51.474;5.696;2022-12-08T06:25:32;8.57;;;4.75;;
46731;SDS011;32477;51.474;5.696;2022-12-08T06:27:58;7.28;;;4.30;;
46731;SDS011;32477;51.474;5.696;2022-12-08T06:30:23;13.40;;;5.18;;
46731;SDS011;32477;51.474;5.696;2022-12-08T06:32:50;14.02;;;4.93;;
46731;SDS011;32477;51.474;5.696;2022-12-08T06:35:15;10.05;;;5.43;;
46731;SDS011;32477;51.474;5.696;2022-12-08T06:37:41;11.57;;;4.82;;
46731;SDS011;32477;51.474;5.696;2022-12-08T06:40:07;13.25;;;4.93;;
46731;SDS011;32477;51.474;5.696;2022-12-08T06:42:33;15.30;;;5.10;;
46731;SDS011;32477;51.474;5.696;2022-12-08T06:45:07;9.80;;;4.75;;
46731;SDS011;32477;51.474;5.696;2022-12-08T06:47:34;15.73;;;4.90;;
46731;SDS011;32477;51.474;5.696;2022-12-08T06:50:00;11.57;;;5.70;;
46731;SDS011;32477;51.474;5.696;2022-12-08T06:52:25;12.77;;;5.65;;
46731;SDS011;32477;51.474;5.696;2022-12-08T06:54:51;8.05;;;4.85;;
46731;SDS011;32477;51.474;5.696;2022-12-08T06:57:16;10.55;;;5.45;;
46731;SDS011;32477;51.474;5.696;2022-12-08T06:59:42;8.65;;;5.07;;
46731;SDS011;32477;51.474;5.696;2022-12-08T07:02:08;13.23;;;5.50;;
46731;SDS011;32477;51.474;5.696;2022-12-08T07:04:34;11.02;;;4.95;;
46731;SDS011;32477;51.474;5.696;2022-12-08T07:07:00;9.50;;;5.55;;
46731;SDS011;32477;51.474;5.696;2022-12-08T07:09:25;10.07;;;5.68;;
46731;SDS011;32477;51.474;5.696;2022-12-08T07:11:51;9.75;;;5.55;;
46731;SDS011;32477;51.474;5.696;2022-12-08T07:14:17;14.40;;;7.10;;
46731;SDS011;32477;51.474;5.696;2022-12-08T07:16:44;14.10;;;6.43;;
46731;SDS011;32477;51.474;5.696;2022-12-08T07:19:09;16.60;;;6.82;;
46731;SDS011;32477;51.474;5.696;2022-12-08T07:21:35;18.25;;;9.13;;
46731;SDS011;32477;51.474;5.696;2022-12-08T07:24:01;22.83;;;10.82;;
46731;SDS011;32477;51.474;5.696;2022-12-08T07:26:26;19.70;;;10.05;;
46731;SDS011;32477;51.474;5.696;2022-12-08T07:28:52;23.42;;;11.88;;
46731;SDS011;32477;51.474;5.696;2022-12-08T07:31:19;24.63;;;11.25;;
46731;SDS011;32477;51.474;5.696;2022-12-08T07:33:46;24.50;;;10.60;;
46731;SDS011;32477;51.474;5.696;2022-12-08T07:36:12;23.65;;;11.35;;
46731;SDS011;32477;51.474;5.696;2022-12-08T07:38:38;29.20;;;13.23;;
46731;SDS011;32477;51.474;5.696;2022-12-08T07:41:04;31.70;;;12.50;;
46731;SDS011;32477;51.474;5.696;2022-12-08T07:43:30;33.20;;;14.02;;
46731;SDS011;32477;51.474;5.696;2022-12-08T07:45:55;31.23;;;13.90;;
46731;SDS011;32477;51.474;5.696;2022-12-08T07:48:21;35.00;;;13.80;;
46731;SDS011;32477;51.474;5.696;2022-12-08T07:50:47;28.27;;;12.27;;
46731;SDS011;32477;51.474;5.696;2022-12-08T07:53:12;19.50;;;9.00;;
46731;SDS011;32477;51.474;5.696;2022-12-08T07:55:42;16.33;;;7.75;;
46731;SDS011;32477;51.474;5.696;2022-12-08T07:58:08;13.98;;;7.90;;
46731;SDS011;32477;51.474;5.696;2022-12-08T08:00:34;19.17;;;9.07;;
46731;SDS011;32477;51.474;5.696;2022-12-08T08:03:00;16.33;;;7.40;;
46731;SDS011;32477;51.474;5.696;2022-12-08T08:05:26;15.00;;;7.18;;
46731;SDS011;32477;51.474;5.696;2022-12-08T08:07:52;19.23;;;8.18;;
46731;SDS011;32477;51.474;5.696;2022-12-08T08:10:18;16.23;;;7.95;;
46731;SDS011;32477;51.474;5.696;2022-12-08T08:12:43;15.00;;;8.25;;
46731;SDS011;32477;51.474;5.696;2022-12-08T08:15:09;21.98;;;9.68;;
46731;SDS011;32477;51.474;5.696;2022-12-08T08:17:36;25.23;;;13.18;;
46731;SDS011;32477;51.474;5.696;2022-12-08T08:20:03;28.40;;;14.25;;
46731;SDS011;32477;51.474;5.696;2022-12-08T08:22:32;28.52;;;14.73;;
46731;SDS011;32477;51.474;5.696;2022-12-08T08:24:59;38.42;;;17.00;;
46731;SDS011;32477;51.474;5.696;2022-12-08T08:27:24;43.80;;;20.63;;
46731;SDS011;32477;51.474;5.696;2022-12-08T08:29:51;49.78;;;22.05;;
46731;SDS011;32477;51.474;5.696;2022-12-08T08:32:17;61.53;;;25.73;;
46731;SDS011;32477;51.474;5.696;2022-12-08T08:34:42;55.83;;;27.25;;
46731;SDS011;32477;51.474;5.696;2022-12-08T08:37:08;65.15;;;31.35;;
46731;SDS011;32477;51.474;5.696;2022-12-08T08:39:34;64.10;;;30.83;;
46731;SDS011;32477;51.474;5.696;2022-12-08T08:41:59;63.75;;;29.05;;
46731;SDS011;32477;51.474;5.696;2022-12-08T08:44:25;52.58;;;26.58;;
46731;SDS011;32477;51.474;5.696;2022-12-08T08:46:51;46.20;;;21.83;;
46731;SDS011;32477;51.474;5.696;2022-12-08T08:49:16;42.92;;;19.95;;
46731;SDS011;32477;51.474;5.696;2022-12-08T08:51:42;37.85;;;17.25;;
46731;SDS011;32477;51.474;5.696;2022-12-08T08:54:08;27.85;;;14.68;;
46731;SDS011;32477;51.474;5.696;2022-12-08T08:56:34;25.42;;;12.57;;
46731;SDS011;32477;51.474;5.696;2022-12-08T08:59:00;32.53;;;14.60;;
46731;SDS011;32477;51.474;5.696;2022-12-08T09:01:27;27.33;;;15.63;;
46731;SDS011;32477;51.474;5.696;2022-12-08T09:03:53;32.25;;;15.52;;
46731;SDS011;32477;51.474;5.696;2022-12-08T09:06:19;30.60;;;16.02;;
46731;SDS011;32477;51.474;5.696;2022-12-08T09:08:45;33.33;;;17.85;;
46731;SDS011;32477;51.474;5.696;2022-12-08T09:11:12;40.28;;;21.52;;
46731;SDS011;32477;51.474;5.696;2022-12-08T09:13:38;47.33;;;24.00;;
46731;SDS011;32477;51.474;5.696;2022-12-08T09:16:05;51.58;;;26.10;;
46731;SDS011;32477;51.474;5.696;2022-12-08T09:18:36;54.42;;;26.45;;
46731;SDS011;32477;51.474;5.696;2022-12-08T09:21:03;60.67;;;26.75;;
46731;SDS011;32477;51.474;5.696;2022-12-08T09:23:29;61.85;;;29.55;;
46731;SDS011;32477;51.474;5.696;2022-12-08T09:25:55;59.05;;;29.52;;
46731;SDS011;32477;51.474;5.696;2022-12-08T09:28:21;58.65;;;29.67;;
46731;SDS011;32477;51.474;5.696;2022-12-08T09:30:46;55.75;;;28.65;;
46731;SDS011;32477;51.474;5.696;2022-12-08T09:33:12;60.63;;;29.42;;
46731;SDS011;32477;51.474;5.696;2022-12-08T09:35:38;68.30;;;29.05;;
46731;SDS011;32477;51.474;5.696;2022-12-08T09:38:03;60.15;;;29.90;;
46731;SDS011;32477;51.474;5.696;2022-12-08T09:40:29;62.33;;;29.15;;
46731;SDS011;32477;51.474;5.696;2022-12-08T09:43:19;63.22;;;29.85;;
46731;SDS011;32477;51.474;5.696;2022-12-08T09:48:27;54.13;;;27.35;;
46731;SDS011;32477;51.474;5.696;2022-12-08T09:50:59;51.10;;;26.67;;
46731;SDS011;32477;51.474;5.696;2022-12-08T09:55:56;55.92;;;26.92;;
46731;SDS011;32477;51.474;5.696;2022-12-08T10:01:11;56.83;;;27.20;;
46731;SDS011;32477;51.474;5.696;2022-12-08T10:03:38;53.72;;;25.77;;
46731;SDS011;32477;51.474;5.696;2022-12-08T10:06:20;64.80;;;27.02;;
46731;SDS011;32477;51.474;5.696;2022-12-08T10:17:20;53.65;;;27.65;;
46731;SDS011;32477;51.474;5.696;2022-12-08T10:19:54;61.78;;;30.55;;
46731;SDS011;32477;51.474;5.696;2022-12-08T10:22:25;55.30;;;29.52;;
46731;SDS011;32477;51.474;5.696;2022-12-08T10:24:57;58.08;;;28.98;;
46731;SDS011;32477;51.474;5.696;2022-12-08T10:27:25;67.57;;;32.33;;
46731;SDS011;32477;51.474;5.696;2022-12-08T10:29:51;67.95;;;32.75;;
46731;SDS011;32477;51.474;5.696;2022-12-08T10:32:19;88.10;;;31.40;;
46731;SDS011;32477;51.474;5.696;2022-12-08T10:35:08;72.03;;;33.00;;
46731;SDS011;32477;51.474;5.696;2022-12-08T10:37:36;64.35;;;29.58;;
46731;SDS011;32477;51.474;5.696;2022-12-08T10:40:08;66.82;;;32.72;;
46731;SDS011;32477;51.474;5.696;2022-12-08T10:42:41;78.18;;;31.30;;
46731;SDS011;32477;51.474;5.696;2022-12-08T10:47:59;57.90;;;29.90;;
46731;SDS011;32477;51.474;5.696;2022-12-08T10:50:31;61.17;;;30.77;;
46731;SDS011;32477;51.474;5.696;2022-12-08T10:55:38;64.97;;;29.92;;
46731;SDS011;32477;51.474;5.696;2022-12-08T10:58:04;68.53;;;30.50;;
46731;SDS011;32477;51.474;5.696;2022-12-08T11:00:30;61.80;;;29.15;;
46731;SDS011;32477;51.474;5.696;2022-12-08T11:05:30;56.38;;;26.50;;
46731;SDS011;32477;51.474;5.696;2022-12-08T11:07:58;55.30;;;26.02;;
46731;SDS011;32477;51.474;5.696;2022-12-08T11:10:30;51.00;;;23.92;;
46731;SDS011;32477;51.474;5.696;2022-12-08T11:12:59;45.95;;;24.50;;
46731;SDS011;32477;51.474;5.696;2022-12-08T11:15:27;41.63;;;20.42;;
46731;SDS011;32477;51.474;5.696;2022-12-08T11:17:59;38.70;;;19.02;;
46731;SDS011;32477;51.474;5.696;2022-12-08T11:20:36;38.20;;;18.38;;
46731;SDS011;32477;51.474;5.696;2022-12-08T11:23:03;39.90;;;18.27;;
46731;SDS011;32477;51.474;5.696;2022-12-08T11:25:42;30.88;;;16.00;;
46731;SDS011;32477;51.474;5.696;2022-12-08T11:28:08;38.38;;;17.45;;
46731;SDS011;32477;51.474;5.696;2022-12-08T11:30:36;31.02;;;15.93;;
46731;SDS011;32477;51.474;5.696;2022-12-08T11:33:14;26.90;;;15.73;;
46731;SDS011;32477;51.474;5.696;2022-12-08T11:35:53;36.28;;;14.73;;
46731;SDS011;32477;51.474;5.696;2022-12-08T11:38:20;32.40;;;14.57;;
46731;SDS011;32477;51.474;5.696;2022-12-08T11:40:59;31.35;;;15.25;;
46731;SDS011;32477;51.474;5.696;2022-12-08T11:46:00;28.55;;;15.00;;
46731;SDS011;32477;51.474;5.696;2022-12-08T11:48:51;31.35;;;15.60;;
46731;SDS011;32477;51.474;5.696;2022-12-08T11:56:52;34.13;;;17.52;;
46731;SDS011;32477;51.474;5.696;2022-12-08T11:59:36;37.30;;;18.20;;
46731;SDS011;32477;51.474;5.696;2022-12-08T12:02:06;42.72;;;18.83;;
46731;SDS011;32477;51.474;5.696;2022-12-08T12:07:25;36.95;;;18.55;;
46731;SDS011;32477;51.474;5.696;2022-12-08T12:10:14;35.92;;;20.00;;
46731;SDS011;32477;51.474;5.696;2022-12-08T12:16:06;37.15;;;18.83;;
46731;SDS011;32477;51.474;5.696;2022-12-08T12:18:51;41.20;;;20.43;;
46731;SDS011;32477;51.474;5.696;2022-12-08T12:21:33;42.72;;;21.05;;
46731;SDS011;32477;51.474;5.696;2022-12-08T12:24:04;47.05;;;20.65;;
46731;SDS011;32477;51.474;5.696;2022-12-08T12:26:36;44.95;;;22.75;;
46731;SDS011;32477;51.474;5.696;2022-12-08T12:31:45;48.53;;;23.90;;
46731;SDS011;32477;51.474;5.696;2022-12-08T12:36:43;44.50;;;24.45;;
46731;SDS011;32477;51.474;5.696;2022-12-08T12:39:12;53.85;;;25.75;;
46731;SDS011;32477;51.474;5.696;2022-12-08T12:41:50;47.95;;;24.75;;
46731;SDS011;32477;51.474;5.696;2022-12-08T12:44:23;48.97;;;24.20;;
46731;SDS011;32477;51.474;5.696;2022-12-08T12:57:15;40.72;;;21.50;;
46731;SDS011;32477;51.474;5.696;2022-12-08T13:02:19;47.63;;;23.35;;
46731;SDS011;32477;51.474;5.696;2022-12-08T13:04:52;41.33;;;22.38;;
46731;SDS011;32477;51.474;5.696;2022-12-08T13:07:34;52.92;;;24.27;;
46731;SDS011;32477;51.474;5.696;2022-12-08T13:10:18;48.38;;;23.15;;
46731;SDS011;32477;51.474;5.696;2022-12-08T13:15:36;45.72;;;24.10;;
46731;SDS011;32477;51.474;5.696;2022-12-08T13:18:28;49.35;;;24.00;;
46731;SDS011;32477;51.474;5.696;2022-12-08T13:23:48;47.97;;;26.00;;
46731;SDS011;32477;51.474;5.696;2022-12-08T13:26:16;46.15;;;25.30;;
46731;SDS011;32477;51.474;5.696;2022-12-08T13:31:49;40.47;;;20.83;;
46731;SDS011;32477;51.474;5.696;2022-12-08T13:35:03;32.70;;;19.25;;
46731;SDS011;32477;51.474;5.696;2022-12-08T13:47:33;32.47;;;17.98;;
46731;SDS011;32477;51.474;5.696;2022-12-08T13:50:05;34.42;;;17.48;;
46731;SDS011;32477;51.474;5.696;2022-12-08T13:55:14;30.48;;;14.38;;
46731;SDS011;32477;51.474;5.696;2022-12-08T13:57:44;27.85;;;14.02;;
46731;SDS011;32477;51.474;5.696;2022-12-08T14:00:17;24.35;;;12.13;;
46731;SDS011;32477;51.474;5.696;2022-12-08T14:02:45;26.08;;;11.65;;
46731;SDS011;32477;51.474;5.696;2022-12-08T14:05:13;26.33;;;11.27;;
46731;SDS011;32477;51.474;5.696;2022-12-08T14:07:43;20.83;;;10.60;;
46731;SDS011;32477;51.474;5.696;2022-12-08T14:10:26;19.98;;;10.48;;
46731;SDS011;32477;51.474;5.696;2022-12-08T14:12:55;24.20;;;10.52;;
46731;SDS011;32477;51.474;5.696;2022-12-08T14:15:32;23.38;;;10.77;;
46731;SDS011;32477;51.474;5.696;2022-12-08T14:17:58;21.75;;;12.00;;
46731;SDS011;32477;51.474;5.696;2022-12-08T14:20:25;20.58;;;11.70;;
46731;SDS011;32477;51.474;5.696;2022-12-08T14:22:53;20.10;;;11.15;;
46731;SDS011;32477;51.474;5.696;2022-12-08T14:25:20;23.73;;;12.02;;
46731;SDS011;32477;51.474;5.696;2022-12-08T14:27:46;23.85;;;14.07;;
46731;SDS011;32477;51.474;5.696;2022-12-08T14:32:48;20.60;;;12.38;;
46731;SDS011;32477;51.474;5.696;2022-12-08T14:35:26;25.35;;;13.13;;
46731;SDS011;32477;51.474;5.696;2022-12-08T14:37:54;24.48;;;13.35;;
46731;SDS011;32477;51.474;5.696;2022-12-08T14:56:20;24.60;;;12.23;;
46731;SDS011;32477;51.474;5.696;2022-12-08T15:01:27;23.77;;;12.13;;
46731;SDS011;32477;51.474;5.696;2022-12-08T15:03:58;21.00;;;11.98;;
46731;SDS011;32477;51.474;5.696;2022-12-08T15:06:25;29.05;;;12.50;;
46731;SDS011;32477;51.474;5.696;2022-12-08T15:08:53;20.30;;;11.50;;
46731;SDS011;32477;51.474;5.696;2022-12-08T15:13:49;23.55;;;11.48;;
46731;SDS011;32477;51.474;5.696;2022-12-08T15:19:01;21.17;;;11.75;;
46731;SDS011;32477;51.474;5.696;2022-12-08T15:21:55;21.77;;;11.83;;
46731;SDS011;32477;51.474;5.696;2022-12-08T15:24:25;23.35;;;11.70;;
46731;SDS011;32477;51.474;5.696;2022-12-08T15:26:53;22.98;;;11.88;;
46731;SDS011;32477;51.474;5.696;2022-12-08T15:31:49;17.85;;;10.23;;
46731;SDS011;32477;51.474;5.696;2022-12-08T15:34:16;17.30;;;10.02;;
46731;SDS011;32477;51.474;5.696;2022-12-08T15:36:43;21.05;;;10.15;;
46731;SDS011;32477;51.474;5.696;2022-12-08T15:39:20;17.50;;;8.70;;
46731;SDS011;32477;51.474;5.696;2022-12-08T15:41:52;13.18;;;8.35;;
46731;SDS011;32477;51.474;5.696;2022-12-08T15:44:17;18.95;;;8.70;;
46731;SDS011;32477;51.474;5.696;2022-12-08T15:46:43;13.32;;;8.93;;
46731;SDS011;32477;51.474;5.696;2022-12-08T15:49:16;15.57;;;8.45;;
46731;SDS011;32477;51.474;5.696;2022-12-08T15:51:44;11.25;;;7.43;;
46731;SDS011;32477;51.474;5.696;2022-12-08T15:54:10;10.30;;;6.47;;
46731;SDS011;32477;51.474;5.696;2022-12-08T15:56:40;13.88;;;7.72;;
46731;SDS011;32477;51.474;5.696;2022-12-08T15:59:17;13.13;;;7.47;;
46731;SDS011;32477;51.474;5.696;2022-12-08T16:01:48;11.20;;;7.30;;
46731;SDS011;32477;51.474;5.696;2022-12-08T16:04:15;10.82;;;6.53;;
46731;SDS011;32477;51.474;5.696;2022-12-08T16:06:44;11.48;;;7.22;;
46731;SDS011;32477;51.474;5.696;2022-12-08T16:09:19;15.02;;;9.15;;
46731;SDS011;32477;51.474;5.696;2022-12-08T16:11:51;15.75;;;9.45;;
46731;SDS011;32477;51.474;5.696;2022-12-08T16:14:35;16.67;;;9.25;;
46731;SDS011;32477;51.474;5.696;2022-12-08T16:17:01;15.95;;;9.93;;
46731;SDS011;32477;51.474;5.696;2022-12-08T16:19:26;17.85;;;10.32;;
46731;SDS011;32477;51.474;5.696;2022-12-08T16:21:52;15.48;;;9.95;;
46731;SDS011;32477;51.474;5.696;2022-12-08T16:24:18;22.85;;;11.32;;
46731;SDS011;32477;51.474;5.696;2022-12-08T16:26:43;21.13;;;12.15;;
46731;SDS011;32477;51.474;5.696;2022-12-08T16:29:14;20.10;;;11.48;;
46731;SDS011;32477;51.474;5.696;2022-12-08T16:31:42;23.33;;;13.07;;
46731;SDS011;32477;51.474;5.696;2022-12-08T16:34:08;21.58;;;13.05;;
46731;SDS011;32477;51.474;5.696;2022-12-08T16:36:34;25.02;;;13.63;;
46731;SDS011;32477;51.474;5.696;2022-12-08T16:38:59;28.20;;;14.15;;
46731;SDS011;32477;51.474;5.696;2022-12-08T16:41:25;25.48;;;13.50;;
46731;SDS011;32477;51.474;5.696;2022-12-08T16:44:09;24.45;;;13.60;;
46731;SDS011;32477;51.474;5.696;2022-12-08T16:46:34;26.60;;;14.43;;
46731;SDS011;32477;51.474;5.696;2022-12-08T16:49:01;28.83;;;14.40;;
46731;SDS011;32477;51.474;5.696;2022-12-08T16:51:27;32.97;;;15.57;;
46731;SDS011;32477;51.474;5.696;2022-12-08T16:53:53;31.25;;;16.02;;